sensor_id;sensor_type;location;lat;lon;timestamp;pressure;altitude;pressure_sealevel;temperature;humidity
76137;BME280;68622;53.128;17.966;2023-04-07T00:02:15;101621.95;;;3.47;69.27
76137;BME280;68622;53.128;17.966;2023-04-07T00:04:41;101618.68;;;3.48;69.72
76137;BME280;68622;53.128;17.966;2023-04-07T00:07:08;101615.50;;;3.50;69.11
76137;BME280;68622;53.128;17.966;2023-04-07T00:09:35;101613.65;;;3.53;69.08
76137;BME280;68622;53.128;17.966;2023-04-07T00:12:02;101617.64;;;3.52;70.32
76137;BME280;68622;53.128;17.966;2023-04-07T00:14:29;101618.14;;;3.48;70.81
76137;BME280;68622;53.128;17.966;2023-04-07T00:16:55;101616.11;;;3.48;69.80
76137;BME280;68622;53.128;17.966;2023-04-07T00:19:22;101612.92;;;3.46;70.92
76137;BME280;68622;53.128;17.966;2023-04-07T00:21:48;101609.70;;;3.44;69.77
76137;BME280;68622;53.128;17.966;2023-04-07T00:24:15;101605.12;;;3.48;69.76
76137;BME280;68622;53.128;17.966;2023-04-07T00:26:42;101604.02;;;3.49;70.64
76137;BME280;68622;53.128;17.966;2023-04-07T00:29:09;101602.39;;;3.52;71.01
76137;BME280;68622;53.128;17.966;2023-04-07T00:31:35;101597.88;;;3.52;71.03
76137;BME280;68622;53.128;17.966;2023-04-07T00:34:02;101593.15;;;3.55;70.50
76137;BME280;68622;53.128;17.966;2023-04-07T00:36:28;101595.08;;;3.54;71.18
76137;BME280;68622;53.128;17.966;2023-04-07T00:38:55;101588.45;;;3.52;71.77
76137;BME280;68622;53.128;17.966;2023-04-07T00:41:22;101590.41;;;3.47;72.83
76137;BME280;68622;53.128;17.966;2023-04-07T00:43:49;101587.41;;;3.49;71.12
76137;BME280;68622;53.128;17.966;2023-04-07T00:46:18;101577.88;;;3.51;70.92
76137;BME280;68622;53.128;17.966;2023-04-07T00:48:47;101580.81;;;3.54;71.29
76137;BME280;68622;53.128;17.966;2023-04-07T00:51:14;101579.30;;;3.54;72.00
76137;BME280;68622;53.128;17.966;2023-04-07T00:53:41;101574.24;;;3.48;72.20
76137;BME280;68622;53.128;17.966;2023-04-07T00:56:08;101572.75;;;3.47;71.80
76137;BME280;68622;53.128;17.966;2023-04-07T00:58:34;101575.57;;;3.45;71.59
76137;BME280;68622;53.128;17.966;2023-04-07T01:01:12;101578.83;;;3.45;72.08
76137;BME280;68622;53.128;17.966;2023-04-07T01:04:00;101577.80;;;3.45;72.24
76137;BME280;68622;53.128;17.966;2023-04-07T01:06:32;101575.68;;;3.47;72.29
76137;BME280;68622;53.128;17.966;2023-04-07T01:11:43;101578.77;;;3.54;71.81
76137;BME280;68622;53.128;17.966;2023-04-07T01:14:18;101574.02;;;3.57;72.25
76137;BME280;68622;53.128;17.966;2023-04-07T01:16:49;101569.40;;;3.56;71.96
76137;BME280;68622;53.128;17.966;2023-04-07T01:19:40;101566.23;;;3.58;72.37
76137;BME280;68622;53.128;17.966;2023-04-07T01:22:20;101561.73;;;3.55;73.38
76137;BME280;68622;53.128;17.966;2023-04-07T01:30:55;101545.66;;;3.65;73.62
76137;BME280;68622;53.128;17.966;2023-04-07T01:33:24;101547.80;;;3.63;72.59
76137;BME280;68622;53.128;17.966;2023-04-07T01:35:53;101544.65;;;3.65;72.54
76137;BME280;68622;53.128;17.966;2023-04-07T01:38:20;101539.25;;;3.67;72.82
76137;BME280;68622;53.128;17.966;2023-04-07T01:40:48;101537.71;;;3.66;72.96
76137;BME280;68622;53.128;17.966;2023-04-07T01:43:17;101535.90;;;3.65;73.62
76137;BME280;68622;53.128;17.966;2023-04-07T01:45:44;101540.22;;;3.64;74.00
76137;BME280;68622;53.128;17.966;2023-04-07T01:48:12;101540.83;;;3.66;73.00
76137;BME280;68622;53.128;17.966;2023-04-07T01:50:39;101539.39;;;3.71;73.18
76137;BME280;68622;53.128;17.966;2023-04-07T01:53:06;101533.96;;;3.69;73.81
76137;BME280;68622;53.128;17.966;2023-04-07T01:55:33;101531.49;;;3.71;73.42
76137;BME280;68622;53.128;17.966;2023-04-07T01:58:08;101534.58;;;3.71;72.88
76137;BME280;68622;53.128;17.966;2023-04-07T02:00:38;101530.86;;;3.73;73.02
76137;BME280;68622;53.128;17.966;2023-04-07T02:03:15;101535.06;;;3.72;73.74
76137;BME280;68622;53.128;17.966;2023-04-07T02:05:48;101535.14;;;3.70;74.34
76137;BME280;68622;53.128;17.966;2023-04-07T02:08:17;101533.73;;;3.71;73.82
76137;BME280;68622;53.128;17.966;2023-04-07T02:10:46;101529.48;;;3.74;72.51
76137;BME280;68622;53.128;17.966;2023-04-07T02:13:19;101530.41;;;3.76;73.46
76137;BME280;68622;53.128;17.966;2023-04-07T02:15:47;101533.45;;;3.76;73.36
76137;BME280;68622;53.128;17.966;2023-04-07T02:18:18;101530.27;;;3.75;73.78
76137;BME280;68622;53.128;17.966;2023-04-07T02:20:46;101533.44;;;3.73;73.99
76137;BME280;68622;53.128;17.966;2023-04-07T02:23:13;101528.11;;;3.74;73.32
76137;BME280;68622;53.128;17.966;2023-04-07T02:25:41;101531.13;;;3.76;73.20
76137;BME280;68622;53.128;17.966;2023-04-07T02:28:08;101532.06;;;3.77;73.80
76137;BME280;68622;53.128;17.966;2023-04-07T02:30:35;101526.86;;;3.78;74.03
76137;BME280;68622;53.128;17.966;2023-04-07T02:33:01;101527.20;;;3.78;73.76
76137;BME280;68622;53.128;17.966;2023-04-07T02:35:28;101523.09;;;3.78;74.07
76137;BME280;68622;53.128;17.966;2023-04-07T02:37:55;101518.91;;;3.79;74.21
76137;BME280;68622;53.128;17.966;2023-04-07T02:40:21;101514.14;;;3.79;74.34
76137;BME280;68622;53.128;17.966;2023-04-07T02:42:48;101509.42;;;3.80;74.10
76137;BME280;68622;53.128;17.966;2023-04-07T02:45:14;101505.59;;;3.82;74.18
76137;BME280;68622;53.128;17.966;2023-04-07T02:47:41;101501.79;;;3.83;73.19
76137;BME280;68622;53.128;17.966;2023-04-07T02:50:09;101501.50;;;3.81;72.86
76137;BME280;68622;53.128;17.966;2023-04-07T02:52:35;101500.54;;;3.84;72.98
76137;BME280;68622;53.128;17.966;2023-04-07T02:55:05;101497.98;;;3.84;74.07
76137;BME280;68622;53.128;17.966;2023-04-07T02:57:33;101495.91;;;3.80;73.91
76137;BME280;68622;53.128;17.966;2023-04-07T03:00:01;101495.79;;;3.78;74.12
76137;BME280;68622;53.128;17.966;2023-04-07T03:02:38;101495.47;;;3.78;74.23
76137;BME280;68622;53.128;17.966;2023-04-07T03:05:05;101493.48;;;3.76;74.83
76137;BME280;68622;53.128;17.966;2023-04-07T03:07:31;101493.50;;;3.76;74.87
76137;BME280;68622;53.128;17.966;2023-04-07T03:09:58;101492.23;;;3.78;74.31
76137;BME280;68622;53.128;17.966;2023-04-07T03:12:25;101491.48;;;3.78;74.92
76137;BME280;68622;53.128;17.966;2023-04-07T03:14:52;101487.42;;;3.81;74.34
76137;BME280;68622;53.128;17.966;2023-04-07T03:17:20;101487.96;;;3.85;73.92
76137;BME280;68622;53.128;17.966;2023-04-07T03:19:46;101483.91;;;3.87;73.90
76137;BME280;68622;53.128;17.966;2023-04-07T03:22:13;101490.19;;;3.88;73.61
76137;BME280;68622;53.128;17.966;2023-04-07T03:24:44;101485.42;;;3.91;73.80
76137;BME280;68622;53.128;17.966;2023-04-07T03:27:11;101484.98;;;3.90;74.14
76137;BME280;68622;53.128;17.966;2023-04-07T03:29:44;101486.15;;;3.90;73.41
76137;BME280;68622;53.128;17.966;2023-04-07T03:32:12;101483.40;;;3.94;73.86
76137;BME280;68622;53.128;17.966;2023-04-07T03:34:39;101481.56;;;3.96;73.71
76137;BME280;68622;53.128;17.966;2023-04-07T03:37:06;101479.41;;;3.98;74.14
76137;BME280;68622;53.128;17.966;2023-04-07T03:39:34;101481.30;;;3.98;74.87
76137;BME280;68622;53.128;17.966;2023-04-07T03:42:03;101474.89;;;3.99;74.64
76137;BME280;68622;53.128;17.966;2023-04-07T03:44:31;101474.72;;;3.96;74.99
76137;BME280;68622;53.128;17.966;2023-04-07T03:46:59;101473.05;;;3.98;75.16
76137;BME280;68622;53.128;17.966;2023-04-07T03:49:26;101467.73;;;3.98;75.60
76137;BME280;68622;53.128;17.966;2023-04-07T03:51:53;101466.71;;;3.98;75.31
76137;BME280;68622;53.128;17.966;2023-04-07T03:54:20;101469.73;;;3.99;75.30
76137;BME280;68622;53.128;17.966;2023-04-07T03:56:47;101469.84;;;3.97;75.01
76137;BME280;68622;53.128;17.966;2023-04-07T03:59:15;101473.86;;;4.02;74.49
76137;BME280;68622;53.128;17.966;2023-04-07T04:01:51;101476.56;;;4.07;74.29
76137;BME280;68622;53.128;17.966;2023-04-07T04:04:17;101477.97;;;4.13;73.84
76137;BME280;68622;53.128;17.966;2023-04-07T04:06:44;101478.84;;;4.20;73.69
76137;BME280;68622;53.128;17.966;2023-04-07T04:09:18;101476.48;;;4.23;74.46
76137;BME280;68622;53.128;17.966;2023-04-07T04:11:46;101476.13;;;4.23;74.66
76137;BME280;68622;53.128;17.966;2023-04-07T04:14:13;101479.55;;;4.23;74.47
76137;BME280;68622;53.128;17.966;2023-04-07T04:16:40;101478.04;;;4.22;75.00
76137;BME280;68622;53.128;17.966;2023-04-07T04:19:24;101478.41;;;4.21;75.47
76137;BME280;68622;53.128;17.966;2023-04-07T04:21:51;101480.91;;;4.23;74.84
76137;BME280;68622;53.128;17.966;2023-04-07T04:24:18;101482.61;;;4.27;74.70
76137;BME280;68622;53.128;17.966;2023-04-07T04:26:45;101481.04;;;4.31;74.31
76137;BME280;68622;53.128;17.966;2023-04-07T04:29:12;101476.54;;;4.35;74.59
76137;BME280;68622;53.128;17.966;2023-04-07T04:31:40;101481.32;;;4.36;75.18
76137;BME280;68622;53.128;17.966;2023-04-07T04:34:07;101477.77;;;4.31;75.67
76137;BME280;68622;53.128;17.966;2023-04-07T04:36:33;101473.42;;;4.32;74.87
76137;BME280;68622;53.128;17.966;2023-04-07T04:39:03;101478.23;;;4.35;74.93
76137;BME280;68622;53.128;17.966;2023-04-07T04:41:31;101478.40;;;4.39;74.37
76137;BME280;68622;53.128;17.966;2023-04-07T04:43:58;101475.14;;;4.43;74.35
76137;BME280;68622;53.128;17.966;2023-04-07T04:46:26;101473.05;;;4.46;74.54
76137;BME280;68622;53.128;17.966;2023-04-07T04:48:53;101474.17;;;4.48;74.48
76137;BME280;68622;53.128;17.966;2023-04-07T04:51:21;101476.51;;;4.49;75.00
76137;BME280;68622;53.128;17.966;2023-04-07T04:53:51;101473.36;;;4.51;74.89
76137;BME280;68622;53.128;17.966;2023-04-07T04:56:18;101474.20;;;4.54;74.79
76137;BME280;68622;53.128;17.966;2023-04-07T04:58:46;101474.41;;;4.56;75.47
76137;BME280;68622;53.128;17.966;2023-04-07T05:01:18;101474.36;;;4.58;74.84
76137;BME280;68622;53.128;17.966;2023-04-07T05:03:53;101473.69;;;4.61;75.55
76137;BME280;68622;53.128;17.966;2023-04-07T05:06:26;101474.05;;;4.64;75.11
76137;BME280;68622;53.128;17.966;2023-04-07T05:08:55;101472.06;;;4.63;75.52
76137;BME280;68622;53.128;17.966;2023-04-07T05:11:25;101474.58;;;4.64;75.23
76137;BME280;68622;53.128;17.966;2023-04-07T05:13:53;101472.59;;;4.69;74.92
76137;BME280;68622;53.128;17.966;2023-04-07T05:16:19;101471.98;;;4.74;74.79
76137;BME280;68622;53.128;17.966;2023-04-07T05:18:46;101471.53;;;4.79;75.06
76137;BME280;68622;53.128;17.966;2023-04-07T05:21:14;101470.65;;;4.83;75.39
76137;BME280;68622;53.128;17.966;2023-04-07T05:23:40;101471.55;;;4.88;74.50
76137;BME280;68622;53.128;17.966;2023-04-07T05:26:08;101469.77;;;4.93;74.81
76137;BME280;68622;53.128;17.966;2023-04-07T05:28:35;101471.26;;;4.94;75.07
76137;BME280;68622;53.128;17.966;2023-04-07T05:31:05;101471.52;;;4.99;75.08
76137;BME280;68622;53.128;17.966;2023-04-07T05:33:32;101469.23;;;5.07;74.17
76137;BME280;68622;53.128;17.966;2023-04-07T05:36:00;101470.08;;;5.16;74.10
76137;BME280;68622;53.128;17.966;2023-04-07T05:38:27;101468.05;;;5.25;73.91
76137;BME280;68622;53.128;17.966;2023-04-07T05:40:57;101470.23;;;5.32;73.87
76137;BME280;68622;53.128;17.966;2023-04-07T05:43:26;101469.86;;;5.40;74.00
76137;BME280;68622;53.128;17.966;2023-04-07T05:45:52;101470.88;;;5.43;73.67
76137;BME280;68622;53.128;17.966;2023-04-07T05:48:20;101470.98;;;5.47;73.70
76137;BME280;68622;53.128;17.966;2023-04-07T05:50:47;101474.36;;;5.51;73.45
76137;BME280;68622;53.128;17.966;2023-04-07T05:53:16;101471.19;;;5.53;73.58
76137;BME280;68622;53.128;17.966;2023-04-07T05:55:43;101471.53;;;5.53;73.35
76137;BME280;68622;53.128;17.966;2023-04-07T05:58:13;101468.45;;;5.55;72.89
76137;BME280;68622;53.128;17.966;2023-04-07T06:00:41;101466.79;;;5.54;73.60
76137;BME280;68622;53.128;17.966;2023-04-07T06:03:10;101461.97;;;5.58;73.33
76137;BME280;68622;53.128;17.966;2023-04-07T06:05:46;101463.16;;;5.64;72.98
76137;BME280;68622;53.128;17.966;2023-04-07T06:08:13;101464.03;;;5.70;72.92
76137;BME280;68622;53.128;17.966;2023-04-07T06:10:40;101465.36;;;5.74;72.70
76137;BME280;68622;53.128;17.966;2023-04-07T06:13:07;101463.88;;;5.76;72.68
76137;BME280;68622;53.128;17.966;2023-04-07T06:15:34;101471.30;;;5.78;73.04
76137;BME280;68622;53.128;17.966;2023-04-07T06:18:00;101469.73;;;5.82;72.56
76137;BME280;68622;53.128;17.966;2023-04-07T06:20:27;101470.90;;;5.89;72.27
76137;BME280;68622;53.128;17.966;2023-04-07T06:22:54;101473.13;;;5.92;73.31
76137;BME280;68622;53.128;17.966;2023-04-07T06:25:20;101478.61;;;5.95;72.78
76137;BME280;68622;53.128;17.966;2023-04-07T06:27:47;101473.86;;;6.01;72.40
76137;BME280;68622;53.128;17.966;2023-04-07T06:30:14;101471.11;;;6.06;72.55
76137;BME280;68622;53.128;17.966;2023-04-07T06:32:41;101474.30;;;6.08;72.57
76137;BME280;68622;53.128;17.966;2023-04-07T06:35:07;101477.38;;;6.02;73.09
76137;BME280;68622;53.128;17.966;2023-04-07T06:37:34;101474.27;;;6.02;73.17
76137;BME280;68622;53.128;17.966;2023-04-07T06:40:01;101474.44;;;6.05;72.72
76137;BME280;68622;53.128;17.966;2023-04-07T06:42:28;101474.95;;;6.12;72.21
76137;BME280;68622;53.128;17.966;2023-04-07T06:45:04;101477.75;;;6.14;72.20
76137;BME280;68622;53.128;17.966;2023-04-07T06:47:31;101479.84;;;6.19;71.97
76137;BME280;68622;53.128;17.966;2023-04-07T06:49:58;101479.73;;;6.25;71.80
76137;BME280;68622;53.128;17.966;2023-04-07T06:52:25;101478.50;;;6.25;72.38
76137;BME280;68622;53.128;17.966;2023-04-07T06:54:51;101474.56;;;6.27;71.86
76137;BME280;68622;53.128;17.966;2023-04-07T06:57:18;101473.33;;;6.30;71.96
76137;BME280;68622;53.128;17.966;2023-04-07T06:59:44;101466.61;;;6.31;72.97
76137;BME280;68622;53.128;17.966;2023-04-07T07:02:11;101466.56;;;6.34;72.78
76137;BME280;68622;53.128;17.966;2023-04-07T07:04:38;101468.39;;;6.38;72.29
76137;BME280;68622;53.128;17.966;2023-04-07T07:07:04;101470.44;;;6.42;72.10
76137;BME280;68622;53.128;17.966;2023-04-07T07:09:31;101469.98;;;6.44;71.94
76137;BME280;68622;53.128;17.966;2023-04-07T07:11:57;101468.23;;;6.47;71.70
76137;BME280;68622;53.128;17.966;2023-04-07T07:14:24;101469.30;;;6.52;71.57
76137;BME280;68622;53.128;17.966;2023-04-07T07:16:51;101472.63;;;6.51;71.71
76137;BME280;68622;53.128;17.966;2023-04-07T07:19:17;101473.59;;;6.55;71.64
76137;BME280;68622;53.128;17.966;2023-04-07T07:21:44;101477.52;;;6.59;71.63
76137;BME280;68622;53.128;17.966;2023-04-07T07:24:11;101478.10;;;6.66;71.53
76137;BME280;68622;53.128;17.966;2023-04-07T07:26:37;101480.34;;;6.78;71.37
76137;BME280;68622;53.128;17.966;2023-04-07T07:29:04;101480.61;;;6.82;71.61
76137;BME280;68622;53.128;17.966;2023-04-07T07:31:30;101480.48;;;6.84;71.68
76137;BME280;68622;53.128;17.966;2023-04-07T07:33:57;101487.35;;;6.87;71.70
76137;BME280;68622;53.128;17.966;2023-04-07T07:36:24;101486.48;;;6.91;71.59
76137;BME280;68622;53.128;17.966;2023-04-07T07:38:52;101487.09;;;6.97;71.25
76137;BME280;68622;53.128;17.966;2023-04-07T07:41:18;101487.23;;;7.03;71.59
76137;BME280;68622;53.128;17.966;2023-04-07T07:43:45;101490.13;;;7.07;71.52
76137;BME280;68622;53.128;17.966;2023-04-07T07:46:11;101493.80;;;7.11;71.14
76137;BME280;68622;53.128;17.966;2023-04-07T07:48:38;101493.60;;;7.15;71.15
76137;BME280;68622;53.128;17.966;2023-04-07T07:51:04;101493.00;;;7.16;70.73
76137;BME280;68622;53.128;17.966;2023-04-07T07:53:31;101499.96;;;7.15;70.79
76137;BME280;68622;53.128;17.966;2023-04-07T07:55:58;101496.57;;;7.14;70.51
76137;BME280;68622;53.128;17.966;2023-04-07T07:58:24;101491.58;;;7.11;70.72
76137;BME280;68622;53.128;17.966;2023-04-07T08:00:51;101489.59;;;7.10;70.83
76137;BME280;68622;53.128;17.966;2023-04-07T08:03:18;101489.95;;;7.07;71.09
76137;BME280;68622;53.128;17.966;2023-04-07T08:05:48;101489.46;;;7.12;71.18
76137;BME280;68622;53.128;17.966;2023-04-07T08:08:15;101489.00;;;7.20;71.51
76137;BME280;68622;53.128;17.966;2023-04-07T08:10:41;101487.04;;;7.21;71.01
76137;BME280;68622;53.128;17.966;2023-04-07T08:13:08;101485.45;;;7.30;70.88
76137;BME280;68622;53.128;17.966;2023-04-07T08:15:34;101483.10;;;7.42;71.18
76137;BME280;68622;53.128;17.966;2023-04-07T08:18:01;101478.89;;;7.54;70.79
76137;BME280;68622;53.128;17.966;2023-04-07T08:20:30;101479.57;;;7.65;70.43
76137;BME280;68622;53.128;17.966;2023-04-07T08:22:57;101480.85;;;7.69;70.23
76137;BME280;68622;53.128;17.966;2023-04-07T08:25:24;101484.56;;;7.81;69.90
76137;BME280;68622;53.128;17.966;2023-04-07T08:27:51;101482.31;;;7.95;70.10
76137;BME280;68622;53.128;17.966;2023-04-07T08:30:17;101482.70;;;8.08;70.06
76137;BME280;68622;53.128;17.966;2023-04-07T08:32:46;101488.67;;;8.16;69.67
76137;BME280;68622;53.128;17.966;2023-04-07T08:35:13;101490.17;;;8.12;69.23
76137;BME280;68622;53.128;17.966;2023-04-07T08:37:40;101491.41;;;8.09;69.18
76137;BME280;68622;53.128;17.966;2023-04-07T08:40:07;101489.86;;;8.12;68.93
76137;BME280;68622;53.128;17.966;2023-04-07T08:42:40;101486.80;;;8.29;68.84
76137;BME280;68622;53.128;17.966;2023-04-07T08:45:07;101479.81;;;8.41;68.74
76137;BME280;68622;53.128;17.966;2023-04-07T08:47:36;101478.27;;;8.53;68.71
76137;BME280;68622;53.128;17.966;2023-04-07T08:50:06;101475.86;;;8.66;68.55
76137;BME280;68622;53.128;17.966;2023-04-07T08:52:49;101477.85;;;8.77;68.48
76137;BME280;68622;53.128;17.966;2023-04-07T08:55:16;101474.36;;;8.95;68.21
76137;BME280;68622;53.128;17.966;2023-04-07T08:57:44;101474.98;;;9.06;67.84
76137;BME280;68622;53.128;17.966;2023-04-07T09:00:13;101472.13;;;9.17;67.44
76137;BME280;68622;53.128;17.966;2023-04-07T09:02:42;101470.08;;;9.24;67.54
76137;BME280;68622;53.128;17.966;2023-04-07T09:05:11;101470.63;;;9.29;66.87
76137;BME280;68622;53.128;17.966;2023-04-07T09:07:40;101475.06;;;9.34;67.02
76137;BME280;68622;53.128;17.966;2023-04-07T09:10:08;101477.32;;;9.37;67.35
76137;BME280;68622;53.128;17.966;2023-04-07T09:12:36;101481.22;;;9.35;66.73
76137;BME280;68622;53.128;17.966;2023-04-07T09:15:07;101480.59;;;9.39;66.76
76137;BME280;68622;53.128;17.966;2023-04-07T09:17:34;101479.52;;;9.40;66.88
76137;BME280;68622;53.128;17.966;2023-04-07T09:20:02;101480.23;;;9.37;66.79
76137;BME280;68622;53.128;17.966;2023-04-07T09:22:43;101477.11;;;9.37;66.46
76137;BME280;68622;53.128;17.966;2023-04-07T09:25:17;101475.70;;;9.30;66.42
76137;BME280;68622;53.128;17.966;2023-04-07T09:28:03;101475.71;;;9.30;66.68
76137;BME280;68622;53.128;17.966;2023-04-07T09:30:32;101478.06;;;9.31;66.65
76137;BME280;68622;53.128;17.966;2023-04-07T09:33:00;101476.67;;;9.36;66.60
76137;BME280;68622;53.128;17.966;2023-04-07T09:35:27;101474.86;;;9.42;66.44
76137;BME280;68622;53.128;17.966;2023-04-07T09:38:06;101464.88;;;9.53;66.24
76137;BME280;68622;53.128;17.966;2023-04-07T09:40:34;101465.02;;;9.70;65.84
76137;BME280;68622;53.128;17.966;2023-04-07T09:43:02;101459.16;;;9.87;65.76
76137;BME280;68622;53.128;17.966;2023-04-07T09:45:29;101458.48;;;10.01;65.44
76137;BME280;68622;53.128;17.966;2023-04-07T09:47:57;101452.05;;;10.01;65.51
76137;BME280;68622;53.128;17.966;2023-04-07T09:50:34;101455.64;;;10.18;65.48
76137;BME280;68622;53.128;17.966;2023-04-07T09:53:01;101449.06;;;10.20;64.75
76137;BME280;68622;53.128;17.966;2023-04-07T09:55:30;101449.33;;;10.31;64.87
76137;BME280;68622;53.128;17.966;2023-04-07T09:57:57;101442.79;;;10.30;65.04
76137;BME280;68622;53.128;17.966;2023-04-07T10:00:24;101444.27;;;10.38;65.02
76137;BME280;68622;53.128;17.966;2023-04-07T10:02:51;101443.29;;;10.48;65.03
76137;BME280;68622;53.128;17.966;2023-04-07T10:05:18;101447.95;;;10.67;64.93
76137;BME280;68622;53.128;17.966;2023-04-07T10:07:48;101445.71;;;10.91;64.13
76137;BME280;68622;53.128;17.966;2023-04-07T10:10:14;101446.82;;;11.03;64.00
76137;BME280;68622;53.128;17.966;2023-04-07T10:12:42;101442.88;;;11.09;63.91
76137;BME280;68622;53.128;17.966;2023-04-07T10:15:12;101440.31;;;11.30;63.55
76137;BME280;68622;53.128;17.966;2023-04-07T10:17:45;101439.67;;;11.43;63.57
76137;BME280;68622;53.128;17.966;2023-04-07T10:20:19;101432.31;;;11.41;61.90
76137;BME280;68622;53.128;17.966;2023-04-07T10:22:48;101434.65;;;11.38;62.06
76137;BME280;68622;53.128;17.966;2023-04-07T10:25:18;101437.08;;;11.40;61.82
76137;BME280;68622;53.128;17.966;2023-04-07T10:27:49;101439.30;;;11.39;61.56
76137;BME280;68622;53.128;17.966;2023-04-07T10:30:25;101438.55;;;11.37;61.74
76137;BME280;68622;53.128;17.966;2023-04-07T10:32:53;101438.31;;;11.31;62.18
76137;BME280;68622;53.128;17.966;2023-04-07T10:35:20;101436.45;;;11.48;62.24
76137;BME280;68622;53.128;17.966;2023-04-07T10:40:34;101434.13;;;11.88;62.02
76137;BME280;68622;53.128;17.966;2023-04-07T10:43:02;101432.35;;;11.98;61.45
76137;BME280;68622;53.128;17.966;2023-04-07T10:48:15;101432.14;;;12.01;60.92
76137;BME280;68622;53.128;17.966;2023-04-07T10:50:44;101431.55;;;12.10;61.50
76137;BME280;68622;53.128;17.966;2023-04-07T10:53:13;101430.52;;;12.17;61.64
76137;BME280;68622;53.128;17.966;2023-04-07T10:55:41;101432.13;;;12.26;61.37
76137;BME280;68622;53.128;17.966;2023-04-07T10:58:25;101437.02;;;12.34;60.58
76137;BME280;68622;53.128;17.966;2023-04-07T11:01:15;101433.45;;;12.35;60.59
76137;BME280;68622;53.128;17.966;2023-04-07T11:03:56;101432.16;;;12.34;61.09
76137;BME280;68622;53.128;17.966;2023-04-07T11:06:23;101428.80;;;12.35;61.17
76137;BME280;68622;53.128;17.966;2023-04-07T11:08:51;101432.23;;;12.25;61.40
76137;BME280;68622;53.128;17.966;2023-04-07T11:11:36;101429.15;;;12.24;61.28
76137;BME280;68622;53.128;17.966;2023-04-07T11:14:04;101429.23;;;12.32;61.66
76137;BME280;68622;53.128;17.966;2023-04-07T11:16:39;101426.24;;;12.24;61.73
76137;BME280;68622;53.128;17.966;2023-04-07T11:19:07;101425.59;;;12.21;61.20
76137;BME280;68622;53.128;17.966;2023-04-07T11:21:34;101425.79;;;12.25;61.34
76137;BME280;68622;53.128;17.966;2023-04-07T11:24:02;101423.06;;;12.24;60.90
76137;BME280;68622;53.128;17.966;2023-04-07T11:26:29;101424.98;;;12.37;60.72
76137;BME280;68622;53.128;17.966;2023-04-07T11:29:02;101418.73;;;12.51;60.21
76137;BME280;68622;53.128;17.966;2023-04-07T11:31:30;101413.15;;;12.63;60.39
76137;BME280;68622;53.128;17.966;2023-04-07T11:34:01;101413.09;;;12.58;60.06
76137;BME280;68622;53.128;17.966;2023-04-07T11:38:59;101416.13;;;12.30;59.94
76137;BME280;68622;53.128;17.966;2023-04-07T11:41:29;101416.60;;;12.33;60.65
76137;BME280;68622;53.128;17.966;2023-04-07T11:44:03;101416.09;;;12.45;60.49
76137;BME280;68622;53.128;17.966;2023-04-07T11:46:30;101411.39;;;12.57;60.49
76137;BME280;68622;53.128;17.966;2023-04-07T11:49:08;101410.89;;;12.59;60.24
76137;BME280;68622;53.128;17.966;2023-04-07T11:51:35;101407.52;;;12.58;60.08
76137;BME280;68622;53.128;17.966;2023-04-07T11:54:01;101407.09;;;12.65;60.08
76137;BME280;68622;53.128;17.966;2023-04-07T11:56:28;101402.80;;;12.84;59.89
76137;BME280;68622;53.128;17.966;2023-04-07T11:58:55;101397.04;;;12.94;59.33
76137;BME280;68622;53.128;17.966;2023-04-07T12:01:38;101389.11;;;13.03;59.45
76137;BME280;68622;53.128;17.966;2023-04-07T12:04:12;101392.26;;;13.19;58.51
76137;BME280;68622;53.128;17.966;2023-04-07T12:06:40;101386.89;;;13.24;58.39
76137;BME280;68622;53.128;17.966;2023-04-07T12:09:21;101383.69;;;13.27;58.93
76137;BME280;68622;53.128;17.966;2023-04-07T12:11:50;101383.44;;;13.34;58.79
76137;BME280;68622;53.128;17.966;2023-04-07T12:14:17;101384.96;;;13.46;58.44
76137;BME280;68622;53.128;17.966;2023-04-07T12:16:44;101383.99;;;13.60;58.23
76137;BME280;68622;53.128;17.966;2023-04-07T12:19:10;101383.64;;;13.76;58.45
76137;BME280;68622;53.128;17.966;2023-04-07T12:21:37;101381.36;;;13.89;58.29
76137;BME280;68622;53.128;17.966;2023-04-07T12:24:04;101380.02;;;14.00;58.17
76137;BME280;68622;53.128;17.966;2023-04-07T12:26:31;101379.88;;;13.98;57.90
76137;BME280;68622;53.128;17.966;2023-04-07T12:28:57;101378.96;;;13.95;58.00
76137;BME280;68622;53.128;17.966;2023-04-07T12:31:31;101376.03;;;13.96;57.36
76137;BME280;68622;53.128;17.966;2023-04-07T12:33:58;101374.23;;;14.02;57.36
76137;BME280;68622;53.128;17.966;2023-04-07T12:36:25;101377.49;;;14.18;57.43
76137;BME280;68622;53.128;17.966;2023-04-07T12:38:55;101372.61;;;14.44;57.55
76137;BME280;68622;53.128;17.966;2023-04-07T12:41:23;101371.19;;;14.56;56.42
76137;BME280;68622;53.128;17.966;2023-04-07T12:43:50;101370.44;;;14.63;56.14
76137;BME280;68622;53.128;17.966;2023-04-07T12:46:17;101371.68;;;14.57;56.13
76137;BME280;68622;53.128;17.966;2023-04-07T12:48:45;101366.65;;;14.59;56.47
76137;BME280;68622;53.128;17.966;2023-04-07T12:51:13;101372.33;;;14.71;56.56
76137;BME280;68622;53.128;17.966;2023-04-07T12:53:40;101374.60;;;14.74;55.94
76137;BME280;68622;53.128;17.966;2023-04-07T12:56:07;101374.22;;;14.82;56.31
76137;BME280;68622;53.128;17.966;2023-04-07T12:58:33;101378.48;;;14.85;56.39
76137;BME280;68622;53.128;17.966;2023-04-07T13:01:00;101381.36;;;14.68;55.69
76137;BME280;68622;53.128;17.966;2023-04-07T13:03:27;101384.23;;;14.63;55.77
76137;BME280;68622;53.128;17.966;2023-04-07T13:05:53;101382.05;;;14.64;56.29
76137;BME280;68622;53.128;17.966;2023-04-07T13:08:20;101383.56;;;14.67;56.35
76137;BME280;68622;53.128;17.966;2023-04-07T13:10:47;101383.67;;;14.71;56.54
76137;BME280;68622;53.128;17.966;2023-04-07T13:13:14;101392.42;;;14.80;56.15